Time;durP1;ratioP1;P1;durP2;ratioP2;P2;SDS_P1;SDS_P2;PMS_P1;PMS_P2;Temp;Humidity;BMP_temperature;BMP_pressure;BME280_temperature;BME280_humidity;BME280_pressure;Samples;Min_cycle;Max_cycle;Signal;HPM_P1;HPM_P2
2022/06/19 00:01:00;;;;;;;2.60;1.93;;;24.40;89.50;;;;;;5030892;28;20976;-74
2022/06/19 00:03:31;;;;;;;5.87;2.50;;;24.50;89.30;;;;;;5031700;28;20458;-73
2022/06/19 00:05:59;;;;;;;3.47;2.23;;;24.50;89.00;;;;;;5031487;28;20469;-74
2022/06/19 00:08:27;;;;;;;3.47;2.20;;;24.50;89.20;;;;;;5031487;28;20532;-74
2022/06/19 00:10:57;;;;;;;3.10;2.23;;;24.50;89.10;;;;;;5031279;28;20459;-74
2022/06/19 00:13:25;;;;;;;4.60;2.50;;;24.40;89.60;;;;;;5031006;28;20529;-73
2022/06/19 00:15:52;;;;;;;3.20;2.47;;;24.50;91.90;;;;;;5032373;28;20454;-74
2022/06/19 00:18:20;;;;;;;6.00;2.30;;;24.50;92.80;;;;;;5032135;28;20479;-73
2022/06/19 00:20:47;;;;;;;3.90;2.50;;;24.30;93.40;;;;;;5034185;28;20454;-73
2022/06/19 00:23:14;;;;;;;4.37;2.70;;;24.00;94.20;;;;;;5035700;28;20473;-74
2022/06/19 00:25:42;;;;;;;4.00;2.60;;;23.80;95.40;;;;;;5033997;28;20462;-74
2022/06/19 00:28:11;;;;;;;5.90;2.67;;;23.70;96.20;;;;;;5035375;28;20799;-74
2022/06/19 00:30:40;;;;;;;3.37;2.30;;;23.40;96.10;;;;;;5036272;28;20459;-74
2022/06/19 00:33:08;;;;;;;4.17;2.80;;;23.10;97.20;;;;;;5036270;28;20487;-73
2022/06/19 00:35:35;;;;;;;4.93;2.70;;;23.00;97.20;;;;;;5036195;28;20842;-74
2022/06/19 00:38:03;;;;;;;5.90;2.43;;;22.90;97.50;;;;;;5036473;28;20462;-74
2022/06/19 00:40:31;;;;;;;3.10;2.30;;;22.80;97.60;;;;;;5035704;28;20462;-74
2022/06/19 00:42:59;;;;;;;6.30;3.23;;;22.70;98.00;;;;;;5035428;28;20462;-74
2022/06/19 00:45:37;;;;;;;6.20;2.80;;;22.60;98.00;;;;;;5035253;28;20455;-73
2022/06/19 00:48:10;;;;;;;4.63;2.50;;;22.60;98.00;;;;;;5035125;28;20472;-74
2022/06/19 00:50:39;;;;;;;5.43;1.90;;;22.50;98.00;;;;;;5035002;28;20466;-74
2022/06/19 00:53:10;;;;;;;2.63;2.10;;;22.50;98.00;;;;;;5034567;28;20462;-74
2022/06/19 00:55:42;;;;;;;2.60;2.10;;;22.30;98.00;;;;;;5033569;28;20454;-74
2022/06/19 00:58:14;;;;;;;5.53;2.23;;;22.20;98.00;;;;;;5034673;28;20480;-74
2022/06/19 01:00:51;;;;;;;4.27;2.30;;;22.40;98.00;;;;;;5034665;28;20473;-74
2022/06/19 01:03:23;;;;;;;2.83;2.10;;;22.30;98.00;;;;;;5034750;28;20898;-73
2022/06/19 01:05:51;;;;;;;4.87;2.33;;;22.20;98.00;;;;;;5034920;28;20458;-74
2022/06/19 01:08:18;;;;;;;3.57;2.40;;;22.00;98.00;;;;;;5034855;28;20462;-74
2022/06/19 01:10:49;;;;;;;5.43;2.77;;;21.80;98.00;;;;;;5033388;28;20817;-74
2022/06/19 01:13:18;;;;;;;4.07;2.20;;;21.60;98.00;;;;;;5034329;28;20573;-73
2022/06/19 01:15:52;;;;;;;2.90;1.97;;;21.50;98.00;;;;;;5034382;28;20455;-73
2022/06/19 01:18:20;;;;;;;3.07;2.00;;;21.40;98.00;;;;;;5034297;28;20466;-74
2022/06/19 01:20:49;;;;;;;4.57;2.27;;;21.40;98.00;;;;;;5033969;28;20466;-73
2022/06/19 01:23:22;;;;;;;3.53;2.13;;;21.40;98.00;;;;;;5033032;28;20462;-74
2022/06/19 01:25:52;;;;;;;3.20;2.30;;;21.30;98.00;;;;;;5034180;28;20468;-74
2022/06/19 01:31:10;;;;;;;4.40;2.30;;;21.20;98.00;;;;;;5033116;28;20470;-74
2022/06/19 01:33:45;;;;;;;3.30;2.07;;;21.20;98.00;;;;;;5034346;28;20490;-73
2022/06/19 01:36:14;;;;;;;7.40;1.93;;;21.20;98.00;;;;;;5034053;28;20458;-73
2022/06/19 01:38:42;;;;;;;3.07;2.80;;;21.20;98.00;;;;;;5033797;28;20857;-73
2022/06/19 01:41:16;;;;;;;5.20;2.50;;;21.30;98.00;;;;;;5032673;28;20816;-73
2022/06/19 01:43:43;;;;;;;5.70;3.30;;;21.40;98.00;;;;;;5033882;28;20460;-74
2022/06/19 01:46:10;;;;;;;3.17;2.20;;;21.40;98.00;;;;;;5033944;28;20709;-74
2022/06/19 01:48:38;;;;;;;4.20;2.30;;;21.30;98.00;;;;;;5032518;28;20465;-73
2022/06/19 01:51:10;;;;;;;3.40;2.27;;;21.30;98.00;;;;;;5033575;28;20458;-74
2022/06/19 01:53:40;;;;;;;6.13;2.30;;;21.20;98.00;;;;;;5033719;28;20490;-73
2022/06/19 01:56:11;;;;;;;3.90;1.97;;;21.30;98.00;;;;;;5033920;28;20463;-73
2022/06/19 01:58:43;;;;;;;4.07;2.27;;;21.40;98.00;;;;;;5033620;28;20838;-74
2022/06/19 02:01:11;;;;;;;3.30;2.10;;;21.30;98.00;;;;;;5033613;28;20826;-73
2022/06/19 02:03:44;;;;;;;3.73;2.30;;;21.30;98.00;;;;;;5033608;28;20462;-73
2022/06/19 02:06:12;;;;;;;2.80;1.93;;;21.10;98.00;;;;;;5033716;28;20493;-73
2022/06/19 02:08:42;;;;;;;5.80;2.30;;;21.10;98.00;;;;;;5033290;28;20465;-73
2022/06/19 02:11:13;;;;;;;1.77;1.53;;;21.30;98.00;;;;;;5033208;28;20459;-73
2022/06/19 02:13:41;;;;;;;3.33;1.90;;;20.90;98.00;;;;;;5033209;28;20513;-73
2022/06/19 02:16:13;;;;;;;3.23;1.97;;;21.00;98.00;;;;;;5015394;28;20455;-73
2022/06/19 02:18:43;;;;;;;2.93;1.83;;;21.00;98.00;;;;;;5033090;28;20508;-73
2022/06/19 02:21:17;;;;;;;3.07;1.80;;;21.00;98.00;;;;;;5033039;28;20462;-74
2022/06/19 02:23:44;;;;;;;2.17;1.80;;;21.00;98.00;;;;;;5033121;28;20489;-73
2022/06/19 02:26:13;;;;;;;6.37;2.43;;;20.90;98.00;;;;;;5031734;28;20466;-73
2022/06/19 02:28:45;;;;;;;2.30;1.60;;;20.90;98.00;;;;;;5031615;28;20462;-74
2022/06/19 02:31:16;;;;;;;8.50;2.93;;;21.00;98.00;;;;;;5032843;28;20459;-74
2022/06/19 02:33:47;;;;;;;3.67;1.80;;;21.00;98.00;;;;;;5032814;28;20569;-73
2022/06/19 02:36:35;;;;;;;3.73;2.13;;;20.80;98.00;;;;;;5032753;28;20470;-73
2022/06/19 02:39:18;;;;;;;3.43;2.53;;;20.60;98.00;;;;;;5031678;28;20462;-74
2022/06/19 02:41:56;;;;;;;3.90;2.63;;;20.60;98.00;;;;;;5031449;28;20466;-73
2022/06/19 02:44:23;;;;;;;1.90;1.63;;;20.60;98.00;;;;;;5032960;28;20461;-74
2022/06/19 02:46:51;;;;;;;2.83;1.83;;;20.40;98.00;;;;;;5032492;28;20474;-74
2022/06/19 02:49:18;;;;;;;3.40;2.40;;;20.40;98.00;;;;;;5032511;28;20944;-73
2022/06/19 02:51:45;;;;;;;5.40;2.90;;;20.60;98.00;;;;;;5032440;28;20462;-71
2022/06/19 02:54:12;;;;;;;3.23;1.90;;;20.60;98.00;;;;;;5032321;28;20497;-71
2022/06/19 02:56:40;;;;;;;2.77;1.70;;;20.50;98.00;;;;;;5032453;28;20490;-71
2022/06/19 02:59:08;;;;;;;3.03;2.10;;;20.60;98.00;;;;;;5031127;28;20964;-71
2022/06/19 03:01:36;;;;;;;3.00;2.43;;;20.50;98.00;;;;;;5032218;28;20455;-71
2022/06/19 03:04:03;;;;;;;3.50;2.07;;;20.40;98.00;;;;;;5032247;28;20465;-71
2022/06/19 03:06:31;;;;;;;3.40;1.80;;;20.40;98.00;;;;;;5031186;28;20494;-72
2022/06/19 03:08:58;;;;;;;1.90;1.80;;;20.30;98.00;;;;;;5031034;28;20466;-71
2022/06/19 03:11:25;;;;;;;8.20;2.23;;;20.20;98.00;;;;;;5032106;28;20459;-71
2022/06/19 03:13:52;;;;;;;2.57;1.97;;;20.00;98.00;;;;;;5032118;28;20832;-71
2022/06/19 03:16:21;;;;;;;3.10;2.00;;;20.00;98.00;;;;;;5031988;28;20455;-72
2022/06/19 03:18:48;;;;;;;8.80;2.00;;;19.90;98.00;;;;;;5031369;28;20466;-72
2022/06/19 03:21:15;;;;;;;4.07;2.27;;;19.90;98.00;;;;;;5032232;28;20483;-71
2022/06/19 03:23:43;;;;;;;4.53;2.13;;;19.90;98.00;;;;;;5029608;28;20463;-71
2022/06/19 03:26:10;;;;;;;3.50;1.80;;;20.00;98.00;;;;;;5031873;28;20463;-72
2022/06/19 03:28:37;;;;;;;3.27;1.90;;;20.10;98.00;;;;;;5031842;28;20463;-71
2022/06/19 03:31:04;;;;;;;5.63;2.40;;;20.00;98.00;;;;;;5031857;28;20451;-72
2022/06/19 03:33:33;;;;;;;2.83;2.00;;;20.00;98.00;;;;;;5030858;28;20466;-72
2022/06/19 03:36:00;;;;;;;2.77;2.13;;;20.00;98.00;;;;;;5031478;28;20486;-71
2022/06/19 03:38:27;;;;;;;3.00;2.10;;;20.00;98.00;;;;;;5031722;28;20462;-71
2022/06/19 03:40:56;;;;;;;2.53;1.80;;;19.90;98.00;;;;;;5031301;28;20458;-72
2022/06/19 03:43:23;;;;;;;2.10;1.80;;;20.00;98.00;;;;;;5031691;28;20455;-71
2022/06/19 03:45:50;;;;;;;2.13;1.80;;;20.10;98.00;;;;;;5031363;28;20463;-71
2022/06/19 03:48:18;;;;;;;2.43;2.13;;;20.10;98.00;;;;;;5030255;28;20463;-71
2022/06/19 03:50:46;;;;;;;2.43;1.87;;;20.20;98.00;;;;;;5030397;28;20925;-71
2022/06/19 03:53:14;;;;;;;3.87;2.60;;;20.20;98.00;;;;;;5031359;28;20856;-71
2022/06/19 03:55:41;;;;;;;3.03;2.37;;;20.20;98.00;;;;;;5031553;28;20493;-72
2022/06/19 03:58:08;;;;;;;2.47;2.00;;;20.10;98.00;;;;;;5030054;28;20462;-71
2022/06/19 04:00:38;;;;;;;3.13;2.50;;;20.20;98.00;;;;;;5031464;28;20957;-71
2022/06/19 04:03:05;;;;;;;3.70;1.73;;;20.30;98.00;;;;;;5031402;28;20888;-72
2022/06/19 04:05:33;;;;;;;3.13;2.20;;;20.20;98.00;;;;;;5031528;28;20799;-72
2022/06/19 04:08:01;;;;;;;2.87;2.20;;;20.20;98.00;;;;;;5030302;28;20450;-71
2022/06/19 04:10:29;;;;;;;3.07;2.17;;;20.20;98.00;;;;;;5031351;28;20454;-71
2022/06/19 04:12:56;;;;;;;3.50;3.00;;;20.10;98.00;;;;;;5031361;28;21477;-71
2022/06/19 04:15:23;;;;;;;3.00;1.87;;;20.10;98.00;;;;;;5031160;28;20482;-71
2022/06/19 04:17:51;;;;;;;2.67;2.00;;;20.20;98.00;;;;;;5031186;28;20455;-71
2022/06/19 04:20:18;;;;;;;3.63;2.60;;;20.20;98.00;;;;;;5030800;28;20455;-71
2022/06/19 04:22:45;;;;;;;2.77;2.00;;;20.30;98.00;;;;;;5031405;28;20451;-71
2022/06/19 04:25:15;;;;;;;2.50;1.93;;;20.40;98.00;;;;;;5030987;28;21011;-71
2022/06/19 04:27:43;;;;;;;6.00;2.20;;;20.30;98.00;;;;;;5031151;28;20458;-71
2022/06/19 04:30:11;;;;;;;6.93;1.90;;;20.40;98.00;;;;;;5029742;28;21010;-71
2022/06/19 04:32:38;;;;;;;3.30;1.70;;;20.40;98.00;;;;;;5031329;28;20454;-70
2022/06/19 04:35:06;;;;;;;3.17;2.20;;;20.30;98.00;;;;;;5031291;28;20487;-71
2022/06/19 04:37:33;;;;;;;2.67;2.13;;;20.30;98.00;;;;;;5031227;28;20461;-71
2022/06/19 04:40:01;;;;;;;6.53;3.63;;;20.40;98.00;;;;;;5030767;28;20470;-71
2022/06/19 04:42:29;;;;;;;6.57;2.40;;;20.50;98.00;;;;;;5031016;28;20458;-71
2022/06/19 04:44:56;;;;;;;2.90;2.00;;;20.40;98.00;;;;;;5029526;28;20446;-72
2022/06/19 04:47:24;;;;;;;2.70;1.87;;;20.50;98.00;;;;;;5029740;28;20458;-71
2022/06/19 04:49:51;;;;;;;2.20;1.70;;;20.60;98.00;;;;;;5030913;28;20459;-71
2022/06/19 04:52:18;;;;;;;3.40;1.87;;;20.60;98.00;;;;;;5029594;28;20454;-71
2022/06/19 04:54:46;;;;;;;3.07;1.80;;;20.60;98.00;;;;;;5030592;28;20497;-72
2022/06/19 04:57:17;;;;;;;4.63;2.40;;;20.50;98.00;;;;;;5029512;28;20463;-71
2022/06/19 04:59:58;;;;;;;2.90;1.93;;;20.50;98.00;;;;;;5030452;28;20465;-71
2022/06/19 05:02:26;;;;;;;2.40;1.90;;;20.60;98.00;;;;;;5030889;28;20458;-71
2022/06/19 05:04:53;;;;;;;5.70;1.77;;;20.80;98.00;;;;;;5028408;28;20458;-71
2022/06/19 05:07:20;;;;;;;3.10;2.20;;;21.00;98.00;;;;;;5034530;28;20466;-71
2022/06/19 05:09:49;;;;;;;2.60;2.27;;;21.00;98.00;;;;;;5034481;28;20450;-71
2022/06/19 05:12:16;;;;;;;1.97;1.90;;;20.90;98.00;;;;;;5034342;28;21053;-72
2022/06/19 05:14:43;;;;;;;2.97;2.20;;;21.00;98.00;;;;;;5034376;28;20850;-71
2022/06/19 05:17:12;;;;;;;3.30;2.57;;;21.20;98.00;;;;;;5034231;28;20451;-71
2022/06/19 05:19:43;;;;;;;3.83;2.30;;;21.30;98.00;;;;;;5034116;28;20458;-71
2022/06/19 05:22:11;;;;;;;3.43;2.40;;;21.50;98.00;;;;;;5032885;28;20957;-71
2022/06/19 05:24:38;;;;;;;5.47;2.50;;;21.50;98.00;;;;;;5034300;28;20465;-71
2022/06/19 05:27:06;;;;;;;6.90;3.07;;;21.60;98.00;;;;;;5034120;28;20817;-71
2022/06/19 05:29:33;;;;;;;4.80;3.20;;;21.60;98.00;;;;;;5034029;28;20462;-71
2022/06/19 05:32:01;;;;;;;5.70;3.33;;;21.70;98.00;;;;;;5033812;28;20455;-71
2022/06/19 05:34:29;;;;;;;4.30;2.40;;;21.90;98.00;;;;;;5034240;28;20489;-71
2022/06/19 05:36:56;;;;;;;3.63;2.30;;;22.00;98.00;;;;;;5033770;28;20450;-71
2022/06/19 05:39:23;;;;;;;5.57;2.63;;;21.90;98.00;;;;;;5034343;28;20838;-72
2022/06/19 05:41:52;;;;;;;6.50;2.93;;;21.90;98.00;;;;;;5033821;28;20466;-71
2022/06/19 05:44:20;;;;;;;3.10;2.30;;;22.10;98.00;;;;;;5033756;28;20465;-71
2022/06/19 05:46:49;;;;;;;4.90;2.80;;;22.20;98.00;;;;;;5033574;28;20490;-71
2022/06/19 05:49:17;;;;;;;3.50;2.70;;;22.30;98.00;;;;;;5033595;28;20451;-71
2022/06/19 05:51:46;;;;;;;3.33;2.60;;;22.40;98.00;;;;;;5033644;28;20450;-71
2022/06/19 05:54:13;;;;;;;3.77;2.60;;;22.40;98.00;;;;;;5033554;28;20455;-71
2022/06/19 05:56:41;;;;;;;3.73;2.00;;;22.50;98.00;;;;;;5033390;28;20479;-71
2022/06/19 05:59:17;;;;;;;3.20;2.30;;;22.50;98.00;;;;;;5033694;28;20451;-71
2022/06/19 06:01:44;;;;;;;3.83;2.20;;;22.50;98.00;;;;;;5033699;28;20528;-71
2022/06/19 06:04:12;;;;;;;2.57;2.10;;;22.70;98.00;;;;;;5033501;28;20459;-71
2022/06/19 06:06:41;;;;;;;3.30;2.43;;;22.90;98.00;;;;;;5033778;28;20953;-71
2022/06/19 06:09:13;;;;;;;4.37;2.70;;;22.90;98.00;;;;;;5033649;28;20648;-71
2022/06/19 06:11:41;;;;;;;6.50;3.60;;;23.00;98.00;;;;;;5033358;28;20675;-71
2022/06/19 06:14:08;;;;;;;10.30;3.47;;;23.10;98.00;;;;;;5032036;28;20451;-71
2022/06/19 06:16:36;;;;;;;5.10;2.30;;;23.20;98.00;;;;;;5033042;28;20862;-71
2022/06/19 06:19:04;;;;;;;2.60;2.27;;;23.20;98.00;;;;;;5032594;28;20467;-71
2022/06/19 06:21:35;;;;;;;4.03;2.63;;;23.30;98.00;;;;;;5033325;28;20459;-72
2022/06/19 06:24:02;;;;;;;5.83;3.30;;;23.40;98.00;;;;;;5032972;28;20447;-71
2022/06/19 06:26:31;;;;;;;5.73;2.20;;;23.50;98.00;;;;;;5031860;28;20487;-71
2022/06/19 06:29:00;;;;;;;3.30;2.40;;;23.60;98.00;;;;;;5033455;28;20455;-71
2022/06/19 06:31:27;;;;;;;3.50;2.20;;;23.80;98.00;;;;;;5033515;28;20467;-71
2022/06/19 06:33:56;;;;;;;7.80;2.80;;;23.80;98.00;;;;;;5033704;28;21128;-71
2022/06/19 06:36:23;;;;;;;4.80;2.50;;;23.90;98.00;;;;;;5033427;28;20482;-71
2022/06/19 06:38:50;;;;;;;8.80;3.07;;;24.00;98.00;;;;;;5033433;28;20956;-72
2022/06/19 06:41:18;;;;;;;4.00;3.00;;;24.10;98.00;;;;;;5032426;28;20450;-69
2022/06/19 06:43:47;;;;;;;4.33;2.77;;;24.10;98.00;;;;;;5033526;28;20454;-69
2022/06/19 06:46:18;;;;;;;7.40;3.03;;;24.10;98.00;;;;;;5033620;28;20470;-69
2022/06/19 06:48:46;;;;;;;4.53;2.40;;;24.20;98.00;;;;;;5032303;28;20532;-69
2022/06/19 06:51:16;;;;;;;16.17;3.07;;;24.20;98.00;;;;;;5033313;28;20459;-69
2022/06/19 06:53:43;;;;;;;5.70;2.90;;;24.30;98.00;;;;;;5032228;28;20462;-69
2022/06/19 06:56:13;;;;;;;3.53;2.70;;;24.40;98.00;;;;;;5032925;28;21010;-69
2022/06/19 06:58:40;;;;;;;3.00;2.20;;;24.50;98.00;;;;;;5033210;28;20458;-65
2022/06/19 07:01:10;;;;;;;8.53;3.03;;;24.70;98.00;;;;;;5033222;28;20466;-65
2022/06/19 07:03:38;;;;;;;7.33;3.17;;;24.90;98.00;;;;;;5033281;28;20481;-65
2022/06/19 07:06:05;;;;;;;4.00;2.60;;;25.20;97.20;;;;;;5033103;28;20485;-65
2022/06/19 07:08:33;;;;;;;4.50;3.00;;;25.40;97.40;;;;;;5033042;28;20458;-66
2022/06/19 07:11:00;;;;;;;3.40;3.00;;;25.60;97.00;;;;;;5032901;28;20462;-66
2022/06/19 07:13:29;;;;;;;3.53;2.43;;;25.80;95.80;;;;;;5032724;28;20953;-65
2022/06/19 07:15:56;;;;;;;6.23;2.87;;;26.00;95.40;;;;;;5032655;28;20474;-65
2022/06/19 07:18:24;;;;;;;4.00;2.90;;;26.10;95.20;;;;;;5032415;28;21025;-65
2022/06/19 07:20:51;;;;;;;3.30;2.40;;;26.30;93.90;;;;;;5032474;28;20508;-64
2022/06/19 07:23:19;;;;;;;5.23;3.37;;;26.50;92.20;;;;;;5031388;28;20451;-67
2022/06/19 07:25:47;;;;;;;3.20;2.70;;;26.60;92.80;;;;;;5032548;28;20850;-64
2022/06/19 07:28:17;;;;;;;3.93;2.40;;;26.70;92.70;;;;;;5032206;28;20474;-66
2022/06/19 07:30:45;;;;;;;3.83;2.63;;;26.90;92.40;;;;;;5031655;28;20462;-64
2022/06/19 07:33:13;;;;;;;5.10;2.80;;;27.00;92.00;;;;;;5032403;28;20458;-64
2022/06/19 07:35:42;;;;;;;6.43;3.13;;;27.10;92.00;;;;;;5032234;28;20474;-64
2022/06/19 07:38:09;;;;;;;8.10;3.13;;;27.20;92.70;;;;;;5032263;28;20462;-64
2022/06/19 07:40:37;;;;;;;5.43;2.87;;;27.30;91.70;;;;;;5032472;28;20459;-65
2022/06/19 07:43:05;;;;;;;3.93;2.30;;;27.20;91.20;;;;;;5030943;28;20457;-66
2022/06/19 07:45:33;;;;;;;4.63;2.77;;;27.10;92.70;;;;;;5032111;28;20949;-66
2022/06/19 07:50:48;;;;;;;4.20;2.40;;;27.20;91.30;;;;;;5024537;28;21026;-65
2022/06/19 07:53:16;;;;;;;3.60;2.47;;;27.30;90.10;;;;;;5029592;28;20461;-67
2022/06/19 07:55:43;;;;;;;5.27;2.60;;;27.50;90.20;;;;;;5029104;28;20589;-66
2022/06/19 07:58:11;;;;;;;3.50;2.60;;;27.70;90.10;;;;;;5029391;28;21181;-64
2022/06/19 08:00:42;;;;;;;6.00;2.43;;;28.00;91.00;;;;;;5029323;28;20462;-65
2022/06/19 08:03:09;;;;;;;3.27;2.43;;;28.20;89.50;;;;;;5029349;28;20466;-65
2022/06/19 08:05:41;;;;;;;6.07;3.10;;;28.30;90.00;;;;;;5029427;28;20470;-65
2022/06/19 08:08:15;;;;;;;4.40;2.87;;;28.50;90.30;;;;;;5029171;28;20478;-66
2022/06/19 08:10:51;;;;;;;5.37;2.80;;;28.60;88.60;;;;;;5029083;28;21196;-66
2022/06/19 08:13:20;;;;;;;5.50;3.10;;;28.80;89.00;;;;;;5036567;28;20527;-64
2022/06/19 08:15:56;;;;;;;4.37;3.00;;;29.00;86.50;;;;;;5028598;28;20502;-66
2022/06/19 08:18:23;;;;;;;5.80;3.43;;;29.20;86.30;;;;;;5029048;28;20470;-67
2022/06/19 08:20:52;;;;;;;6.37;3.83;;;29.40;85.40;;;;;;5027619;28;21020;-66
2022/06/19 08:23:21;;;;;;;6.43;3.53;;;29.50;85.10;;;;;;5029230;28;20512;-66
2022/06/19 08:25:50;;;;;;;6.53;3.90;;;29.70;83.90;;;;;;5029006;28;20481;-66
2022/06/19 08:28:20;;;;;;;6.20;3.40;;;29.90;83.50;;;;;;5028928;28;20898;-66
2022/06/19 08:30:47;;;;;;;7.37;3.90;;;30.10;82.80;;;;;;5029009;28;20461;-66
2022/06/19 08:33:14;;;;;;;9.20;4.13;;;30.30;81.80;;;;;;5028995;28;20454;-66
2022/06/19 08:35:44;;;;;;;5.77;3.53;;;30.40;80.00;;;;;;5028733;28;20482;-66
2022/06/19 08:38:16;;;;;;;8.60;4.00;;;30.60;81.20;;;;;;5028822;28;20467;-66
2022/06/19 08:41:08;;;;;;;8.57;3.80;;;30.70;80.60;;;;;;5030095;28;20461;-66
2022/06/19 08:44:10;;;;;;;10.00;4.73;;;30.80;80.20;;;;;;4999921;28;20507;-68
2022/06/19 08:46:47;;;;;;;7.73;4.40;;;30.90;80.20;;;;;;5027862;28;20462;-66
2022/06/19 08:49:27;;;;;;;6.93;4.37;;;31.10;80.50;;;;;;5031506;28;20465;-67
2022/06/19 08:52:03;;;;;;;6.50;4.10;;;31.20;79.80;;;;;;5032820;28;20462;-67
2022/06/19 08:54:44;;;;;;;8.97;4.50;;;31.40;78.00;;;;;;5031733;28;21171;-66
2022/06/19 08:57:28;;;;;;;7.97;4.40;;;31.50;79.50;;;;;;5032830;28;20501;-69
2022/06/19 09:00:05;;;;;;;7.00;4.10;;;31.60;78.10;;;;;;5025466;28;20459;-66
2022/06/19 09:02:46;;;;;;;6.70;4.10;;;31.60;78.90;;;;;;5031435;28;20486;-67
2022/06/19 09:05:38;;;;;;;10.60;4.00;;;31.80;80.90;;;;;;5032813;28;20462;-66
2022/06/19 09:08:39;;;;;;;7.20;4.07;;;32.00;79.50;;;;;;5032844;28;20470;-66
2022/06/19 09:11:17;;;;;;;7.00;5.13;;;32.00;78.60;;;;;;5025618;28;20493;-67
2022/06/19 09:14:07;;;;;;;9.23;4.60;;;32.10;78.40;;;;;;5033807;28;20464;-67
2022/06/19 09:16:39;;;;;;;9.07;4.37;;;32.00;78.70;;;;;;5032148;28;20486;-67
2022/06/19 09:19:14;;;;;;;6.17;4.40;;;32.10;79.10;;;;;;5032288;28;20473;-66
2022/06/19 09:22:03;;;;;;;5.90;4.03;;;32.20;79.50;;;;;;5032017;28;20468;-66
2022/06/19 09:24:47;;;;;;;7.47;4.60;;;32.30;78.60;;;;;;5024119;28;20973;-67
2022/06/19 09:27:25;;;;;;;8.17;4.10;;;32.40;77.50;;;;;;5026372;28;20455;-66
2022/06/19 09:29:58;;;;;;;7.73;4.37;;;32.50;77.20;;;;;;5032342;28;20466;-66
2022/06/19 09:32:33;;;;;;;9.47;4.20;;;32.50;77.30;;;;;;5032174;28;20576;-66
2022/06/19 09:35:12;;;;;;;9.20;4.40;;;32.70;78.80;;;;;;5030836;28;20454;-66
2022/06/19 09:37:50;;;;;;;8.23;4.83;;;32.80;77.20;;;;;;5038300;28;20478;-66
2022/06/19 09:40:30;;;;;;;5.50;4.03;;;33.00;77.10;;;;;;5033914;28;20462;-66
2022/06/19 09:43:04;;;;;;;12.63;5.20;;;33.00;77.20;;;;;;5031108;28;20453;-67
2022/06/19 09:45:37;;;;;;;8.90;4.53;;;33.10;75.70;;;;;;5032016;28;20463;-68
2022/06/19 09:48:14;;;;;;;6.00;4.13;;;33.10;77.20;;;;;;5024044;28;20462;-67
2022/06/19 09:50:45;;;;;;;8.67;4.40;;;33.30;76.80;;;;;;5030762;28;20469;-67
2022/06/19 09:53:20;;;;;;;7.38;4.45;;;33.50;78.20;;;;;;5029889;28;21252;-74
2022/06/19 09:55:51;;;;;;;8.90;4.53;;;33.60;75.70;;;;;;5031694;28;20213;-74
2022/06/19 09:58:21;;;;;;;5.37;4.27;;;33.70;75.40;;;;;;5031548;28;20466;-74
2022/06/19 10:00:55;;;;;;;7.07;4.27;;;33.80;76.70;;;;;;5031699;28;20459;-72
2022/06/19 10:03:27;;;;;;;8.50;4.10;;;33.80;75.80;;;;;;5031751;28;20482;-72
2022/06/19 10:05:58;;;;;;;7.23;4.70;;;34.00;76.40;;;;;;5031742;28;21118;-71
2022/06/19 10:08:29;;;;;;;8.70;4.90;;;34.00;76.60;;;;;;5031680;28;20909;-73
2022/06/19 10:11:02;;;;;;;9.83;5.43;;;34.10;76.40;;;;;;5031345;28;20455;-70
2022/06/19 10:13:36;;;;;;;9.07;4.80;;;34.20;74.70;;;;;;5031359;28;20809;-72
2022/06/19 10:16:14;;;;;;;9.90;4.43;;;34.30;73.70;;;;;;5031355;28;20469;-73
2022/06/19 10:18:48;;;;;;;5.63;4.03;;;34.40;71.20;;;;;;5030977;28;20455;-74
2022/06/19 10:24:07;;;;;;;8.20;4.83;;;34.80;71.90;;;;;;5037405;28;20509;-73
2022/06/19 10:26:41;;;;;;;6.13;4.33;;;35.00;69.40;;;;;;5031106;28;20470;-75
2022/06/19 10:29:21;;;;;;;10.57;4.27;;;35.10;68.10;;;;;;5030088;28;20799;-75
2022/06/19 10:32:09;;;;;;;8.30;4.67;;;35.20;66.60;;;;;;5030719;28;20470;-74
2022/06/19 10:34:47;;;;;;;7.70;5.07;;;35.30;64.60;;;;;;5031054;28;20899;-74
2022/06/19 10:37:22;;;;;;;8.00;4.20;;;35.30;63.20;;;;;;5031246;28;20498;-73
2022/06/19 10:40:02;;;;;;;7.20;4.23;;;35.30;63.70;;;;;;5031132;28;20477;-73
2022/06/19 10:42:37;;;;;;;7.73;4.77;;;35.20;64.00;;;;;;5030511;28;20463;-74
2022/06/19 10:45:18;;;;;;;7.37;4.90;;;35.30;64.00;;;;;;5029297;28;20473;-75
2022/06/19 10:48:21;;;;;;;6.53;4.03;;;35.30;62.10;;;;;;5030796;28;20469;-75
2022/06/19 10:51:09;;;;;;;8.63;4.83;;;35.30;63.20;;;;;;5025135;28;20825;-74
2022/06/19 10:54:06;;;;;;;8.77;4.97;;;35.30;63.10;;;;;;5023583;28;20451;-76
2022/06/19 10:56:44;;;;;;;6.93;4.87;;;35.40;62.20;;;;;;5030510;28;20501;-71
2022/06/19 10:59:13;;;;;;;9.43;4.50;;;35.50;63.30;;;;;;5030079;28;20473;-73
2022/06/19 11:04:37;;;;;;;6.57;4.60;;;35.50;61.60;;;;;;5030618;28;20433;-73
2022/06/19 11:07:11;;;;;;;10.63;4.93;;;35.50;61.50;;;;;;5022346;28;20477;-73
2022/06/19 11:09:44;;;;;;;6.10;4.40;;;35.40;61.60;;;;;;5029994;28;20459;-72
2022/06/19 11:12:19;;;;;;;8.67;4.30;;;35.50;60.30;;;;;;5030496;28;20474;-73
2022/06/19 11:14:50;;;;;;;6.40;3.93;;;35.50;60.40;;;;;;5030069;28;20474;-73
2022/06/19 11:17:30;;;;;;;10.00;5.23;;;35.70;61.50;;;;;;5029074;28;20509;-75
2022/06/19 11:19:57;;;;;;;10.63;4.70;;;35.70;60.80;;;;;;5028177;28;21006;-74
2022/06/19 11:22:36;;;;;;;8.30;4.50;;;35.70;60.30;;;;;;5029927;28;20455;-72
2022/06/19 11:25:30;;;;;;;10.63;4.43;;;35.90;59.70;;;;;;5029828;28;20473;-73
2022/06/19 11:28:01;;;;;;;8.90;4.23;;;35.90;60.10;;;;;;5029848;28;20581;-75
2022/06/19 11:30:33;;;;;;;8.63;4.53;;;36.10;60.30;;;;;;5030058;28;20462;-74
2022/06/19 11:33:01;;;;;;;6.00;4.00;;;36.30;59.40;;;;;;5028446;28;20513;-73
2022/06/19 11:35:39;;;;;;;7.27;4.40;;;36.40;59.00;;;;;;5029957;28;20470;-74
2022/06/19 11:38:08;;;;;;;11.43;5.10;;;36.60;58.40;;;;;;5029384;28;20494;-75
2022/06/19 11:40:39;;;;;;;7.03;3.63;;;36.60;58.20;;;;;;5029750;28;20462;-75
2022/06/19 11:43:21;;;;;;;7.00;3.70;;;36.60;57.90;;;;;;5029895;28;20467;-73
2022/06/19 11:46:04;;;;;;;7.13;3.93;;;36.80;58.60;;;;;;5029656;28;20462;-72
2022/06/19 11:48:31;;;;;;;10.20;3.70;;;36.90;57.40;;;;;;5029705;28;20470;-70
2022/06/19 11:50:59;;;;;;;5.03;3.77;;;37.00;56.50;;;;;;5028123;28;20459;-72
2022/06/19 11:53:30;;;;;;;6.43;4.27;;;37.00;56.80;;;;;;5029571;28;20461;-72
2022/06/19 11:56:23;;;;;;;6.43;3.97;;;37.00;56.70;;;;;;5029227;28;20459;-73
2022/06/19 11:58:56;;;;;;;5.87;3.70;;;37.00;58.90;;;;;;5029635;28;20463;-72
2022/06/19 12:01:35;;;;;;;6.70;4.00;;;37.00;56.90;;;;;;5029595;28;20469;-72
2022/06/19 12:04:05;;;;;;;9.43;4.70;;;36.90;57.10;;;;;;5028471;28;20945;-73
2022/06/19 12:06:45;;;;;;;5.30;3.63;;;37.00;56.40;;;;;;5029676;28;20544;-72
2022/06/19 12:09:28;;;;;;;7.63;3.53;;;37.10;56.90;;;;;;5029845;28;20829;-74
2022/06/19 12:12:04;;;;;;;4.87;3.43;;;37.30;56.50;;;;;;5029486;28;20462;-73
2022/06/19 12:14:34;;;;;;;9.83;3.80;;;37.30;55.90;;;;;;5029555;28;20480;-72
2022/06/19 12:17:20;;;;;;;6.33;3.73;;;37.60;57.00;;;;;;5028946;28;20489;-71
2022/06/19 12:19:58;;;;;;;7.20;3.70;;;37.80;56.00;;;;;;5028963;28;20854;-72
2022/06/19 12:22:35;;;;;;;6.50;3.80;;;37.80;55.10;;;;;;5021292;28;20545;-73
2022/06/19 12:25:14;;;;;;;6.80;3.60;;;37.60;55.40;;;;;;5021936;28;20957;-71
2022/06/19 12:27:48;;;;;;;5.90;3.83;;;37.60;56.10;;;;;;5029312;28;20466;-72
2022/06/19 12:30:24;;;;;;;6.17;3.63;;;37.60;55.90;;;;;;5027857;28;20458;-72
2022/06/19 12:32:54;;;;;;;6.90;3.90;;;37.60;55.00;;;;;;5029181;28;20496;-73
2022/06/19 12:35:30;;;;;;;5.00;3.50;;;37.60;56.10;;;;;;5028873;28;20971;-73
2022/06/19 12:38:10;;;;;;;5.70;3.53;;;37.80;56.40;;;;;;5028143;28;21015;-75
2022/06/19 12:40:49;;;;;;;5.27;3.60;;;38.00;55.10;;;;;;5029188;28;20450;-71
2022/06/19 12:43:22;;;;;;;5.20;3.77;;;38.20;55.30;;;;;;5029081;28;20492;-74
2022/06/19 12:45:56;;;;;;;4.90;3.47;;;38.50;57.50;;;;;;5029457;28;20969;-73
2022/06/19 12:48:43;;;;;;;10.43;3.90;;;38.60;54.40;;;;;;5021544;28;20470;-74
2022/06/19 12:51:15;;;;;;;6.00;3.70;;;38.50;54.10;;;;;;5026561;28;20474;-74
2022/06/19 12:54:22;;;;;;;5.07;3.30;;;38.50;55.30;;;;;;5042417;28;20454;-72
2022/06/19 12:57:07;;;;;;;7.13;4.00;;;38.30;54.60;;;;;;4989260;28;20448;-73
2022/06/19 12:59:51;;;;;;;6.77;4.27;;;38.30;54.00;;;;;;5039329;28;20876;-72
2022/06/19 13:02:28;;;;;;;7.83;3.43;;;38.40;55.40;;;;;;5039405;28;20454;-71
2022/06/19 13:05:10;;;;;;;5.70;3.73;;;38.50;54.20;;;;;;5048321;28;20465;-72
2022/06/19 13:07:48;;;;;;;6.43;4.00;;;38.60;54.00;;;;;;5038223;28;20536;-72
2022/06/19 13:10:40;;;;;;;6.23;3.47;;;38.60;53.60;;;;;;5049291;28;20503;-71
2022/06/19 13:13:31;;;;;;;5.37;3.50;;;38.70;53.80;;;;;;5035734;28;20463;-72
2022/06/19 13:16:00;;;;;;;5.60;3.33;;;38.90;53.20;;;;;;5042086;28;20484;-72
2022/06/19 13:18:55;;;;;;;7.43;3.87;;;39.00;54.60;;;;;;5042353;28;20494;-72
2022/06/19 13:21:40;;;;;;;9.23;4.23;;;38.80;53.60;;;;;;5031125;28;20469;-72